STAZIONE METEO DI BARCELLONA P.G. CENTRO
Dati campionati ogni minuto da Consolle Davis Vantage Pro 2
ed inviati alla rete mediante server Anemos WDS5 wview



Barcellona P.G. Centro more information Barcellona P.G. Centro


Golfo di Patti more information Golfo di Patti


avvertimento per Temporali more information blitzortung!


Rain radar  rain snow radar


altri nostri siti meteo:

Rischio IncendiRischio Incendi

Rete NOAA MADIS

Italia Meteo Network

PomeziameteoSito web di stazione meteo amica



Temporali Da: 22-09-2021 11:00 Fino a: 16:59 Avvertimento per: Temporali Livello: Giallo info button
english:
No Special Awareness Required
(DISCLAIMER: "Information provided on METEOALARM for Italy regard only the intensity and recurrence of the phenomena, further details can be found at www.meteoam.it. METEOALARM information do not provide the assessment of impact on the territory and they do not represent the Official Alerts messages that are issued by the National Civil Protection Service www.protezionecivile.it")

BE AWARE, keep up to date with the latest weather forecast. Expect some minor disruption to outdoor activities

italiano:
Nessun Avviso
(DISCLAIMER: "Le informazioni fornite su METEOALARM per l'Italia riguardano esclusivamente l'intensita' e la ricorrenza dei fenomeni, maggiori dettagli sono disponibili su www.meteoam.it. Le informazioni METEOALARM non forniscono la valutazione di impatto sul territorio e non rappresentano i messaggi di Allerta Ufficiali che vengono emessi dal Servizio Nazionale di Protezione Civile www.protezionecivile.it")

STARE (RIMANERE) ATTENTI. Tenersi aggiornati con le previsioni del tempo più recenti. Aspettarsi alcuni disagi minori per le attività all'aria aperta. 

Report METAR

   
LICF - Messina, Italy
Distanza dalla stazione: NE 30 km
Dati ricevuti: 22-09-2021 02:55
Sereno  
Sereno  
   Vento: calma
Vento: calma
Temperatura: 23°C
P.to Rugiada: 19°C
Umidità: 78%
Barometro: 1019 hPa
Visibilità: oltre 10 km
dettagli cloud: Sereno
LICF 220055Z 00000KT CAVOK 23/19 Q1019 RMK SCT SCT080 QUK / QUL / VIS MAR 20 KM MON INVIS NC VIS MIN 9999
LICR - Reggio Calabria, Italy
Distanza dalla stazione: SE 39 km
Dati ricevuti: 22-09-2021 03:20
Molto nuvoloso  
Molto nuvoloso  
   Vento: Oriente 7.4 km/h
Vento: Oriente 7.4 km/h
Temperatura: 23°C
P.to Rugiada: 17°C
Umidità: 69%
Barometro: 1019 hPa
Nuvole: Molto nuvoloso
Visibilità: 7 km
dettagli cloud: Molto nuvoloso 3962.4 m
LICR 220120Z AUTO 09004KT 7000 BKN130/// 23/17 Q1019
LICC - Catania/Fontanar, Italy
Distanza dalla stazione: S 77 km
Dati ricevuti: 22-09-2021 03:20
Sereno  
Sereno  
   Vento: Variabile 3.7 km/h
Vento: Variabile 3.7 km/h
Temperatura: 25°C
P.to Rugiada: 20°C
Umidità: 74%
Barometro: 1019 hPa
Visibilità: oltre 10 km
dettagli cloud: Sereno
LICC 220120Z VRB02KT CAVOK 25/20 Q1019
LICZ - Sigonella (nas), Italy
Distanza dalla stazione: S 89 km
Dati ricevuti: 22-09-2021 02:55
Parzialmente nuvoloso  
Parzialmente nuvoloso  
   Vento: W 7.4 km/h
Vento: W 7.4 km/h
Temperatura: 23°C
P.to Rugiada: 23°C
Umidità: 100%
Barometro: 1019 hPa
Nuvole: Parzialmente nuvoloso
Visibilità: oltre 10 km
dettagli cloud: Parzialmente nuvoloso 2743.2 m
LICZ 220055Z 24004KT 9999 SCT090 23/23 Q1019
LICA - Lamezia Terme, Italy
Distanza dalla stazione: NE 122 km
Dati ricevuti: 22-09-2021 03:20
Sereno  
Sereno  
   Vento: NE 18.5 km/h
Vento: NE 18.5 km/h
Temperatura: 22°C
P.to Rugiada: 16°C
Umidità: 69%
Barometro: 1020 hPa
Nuvole: Sereno
Visibilità: oltre 10 km
dettagli cloud: Sereno
LICA 220120Z AUTO 04010KT 9999 NCD 22/16 Q1020
LICB - Comiso, Italy
Distanza dalla stazione: S 138 km
Dati ricevuti: 22-09-2021 03:20
Sereno  
Sereno  
   Vento: Variabile 1.9 km/h
Vento: Variabile 1.9 km/h
Temperatura: 23°C
P.to Rugiada: 17°C
Umidità: 69%
Barometro: 1020 hPa
Nuvole: Sereno
Visibilità: oltre 10 km
dettagli cloud: Sereno
LICB 220120Z AUTO VRB01KT 9999 NCD 23/17 Q1020

Script sviluppato da  Saratoga-weather.org Adattato per il modello da  Weerstation Leuven

Potete trovare le nostre info meteo anche a:

European Weather Network

Weather Underground

AWEKAS

Citizen Weather Observer Program (CWOP)

HAMweather, WeatherForYou, PWS Weather

Attrezzature usate:

Stazione meteo
Davis VP2

Programma gestore dati meteo
WVIEW

Server per i dati meteo
WDS5 Ecoblack

Davis VP2

WVIEW

WDS5 Ecoblack